Time;durP1;ratioP1;P1;durP2;ratioP2;P2;SDS_P1;SDS_P2;PMS_P1;PMS_P2;Temp;Humidity;BMP_temperature;BMP_pressure;BME280_temperature;BME280_humidity;BME280_pressure;Samples;Min_cycle;Max_cycle;Signal;HPM_P1;HPM_P2
2023/01/02 00:01:41;;;;;;;;;;;10.80;99.90;;;;;;4992064;28;19926;-55
2023/01/02 00:04:06;;;;;;;;;;;10.80;99.90;;;;;;4992998;28;19941;-56
2023/01/02 00:06:33;;;;;;;;;;;;;;;;;;4975240;28;19926;-56
2023/01/02 00:08:58;;;;;;;;;;;10.80;99.90;;;;;;4991731;28;19922;-55
2023/01/02 00:11:24;;;;;;;;;;;10.80;99.90;;;;;;4989376;28;20009;-52
2023/01/02 00:13:49;;;;;;;;;;;10.90;99.90;;;;;;4991573;28;19921;-53
2023/01/02 00:16:15;;;;;;;;;;;10.90;99.90;;;;;;4992095;28;20244;-55
2023/01/02 00:18:40;;;;;;;;;;;10.90;99.90;;;;;;4991586;28;20016;-52
2023/01/02 00:21:06;;;;;;;;;;;10.90;99.90;;;;;;4991359;28;20013;-55
2023/01/02 00:23:32;;;;;;;;;;;10.90;99.90;;;;;;4991595;28;19981;-53
2023/01/02 00:25:58;;;;;;;;;;;10.90;99.90;;;;;;4995730;28;20004;-53
2023/01/02 00:28:23;;;;;;;;;;;10.90;99.90;;;;;;4996174;28;19922;-53
2023/01/02 00:30:49;;;;;;;;;;;11.00;99.90;;;;;;4995688;28;20395;-51
2023/01/02 00:33:14;;;;;;;;;;;11.00;99.90;;;;;;4996236;28;19929;-51
2023/01/02 00:35:40;;;;;;;;;;;11.00;99.90;;;;;;4996476;28;19922;-55
2023/01/02 00:38:06;;;;;;;;;;;11.00;99.90;;;;;;4996465;28;19937;-55
2023/01/02 00:40:31;;;;;;;;;;;10.90;99.90;;;;;;4999802;28;20333;-52
2023/01/02 00:42:57;;;;;;;;;;;11.00;99.90;;;;;;4997123;28;19922;-53
2023/01/02 00:45:22;;;;;;;;;;;11.00;99.90;;;;;;4994829;28;19922;-55
2023/01/02 00:47:48;;;;;;;;;;;11.00;99.90;;;;;;4994823;28;19928;-56
2023/01/02 00:50:13;;;;;;;;;;;11.00;99.90;;;;;;4995816;28;19921;-56
2023/01/02 00:52:39;;;;;;;;;;;11.00;99.90;;;;;;4989693;28;19922;-56
2023/01/02 00:55:04;;;;;;;;;;;11.10;99.90;;;;;;4978452;28;19932;-55
2023/01/02 00:57:30;;;;;;;;;;;11.10;99.90;;;;;;4995767;28;19922;-55
2023/01/02 00:59:55;;;;;;;;;;;11.10;99.90;;;;;;4982228;28;20376;-55
2023/01/02 01:02:21;;;;;;;;;;;11.10;99.90;;;;;;4995568;28;20004;-55
2023/01/02 01:04:46;;;;;;;;;;;11.10;99.90;;;;;;4995341;28;19922;-52
2023/01/02 01:07:12;;;;;;;;;;;11.10;99.90;;;;;;4994432;28;19925;-56
2023/01/02 01:09:37;;;;;;;;;;;11.10;99.90;;;;;;4991111;28;19940;-54
2023/01/02 01:12:03;;;;;;;;;;;11.10;99.90;;;;;;4992239;28;19922;-55
2023/01/02 01:14:28;;;;;;;;;;;11.10;99.90;;;;;;4994393;28;20405;-55
2023/01/02 01:16:54;;;;;;;;;;;;;;;;;;4994978;28;19925;-52
2023/01/02 01:19:20;;;;;;;;;;;11.10;99.90;;;;;;4995117;28;19921;-55
2023/01/02 01:21:45;;;;;;;;;;;11.20;99.90;;;;;;4976131;28;20325;-56
2023/01/02 01:24:11;;;;;;;;;;;11.20;99.90;;;;;;4994807;28;19926;-56
2023/01/02 01:26:36;;;;;;;;;;;11.10;99.90;;;;;;4993796;28;20411;-55
2023/01/02 01:29:02;;;;;;;;;;;11.10;99.90;;;;;;4973165;28;19976;-55
2023/01/02 01:31:27;;;;;;;;;;;11.10;99.90;;;;;;4992927;28;19929;-55
2023/01/02 01:33:53;;;;;;;;;;;11.10;99.90;;;;;;4993867;28;19921;-56
2023/01/02 01:36:20;;;;;;;;;;;11.10;99.90;;;;;;4992238;28;19972;-53
2023/01/02 01:38:46;;;;;;;;;;;11.10;99.90;;;;;;4994198;28;20016;-55
2023/01/02 01:41:12;;;;;;;;;;;;;;;;;;4995001;28;20096;-54
2023/01/02 01:43:51;;;;;;;;;;;11.10;99.90;;;;;;4994635;28;20392;-55
2023/01/02 01:46:39;;;;;;;;;;;11.20;99.90;;;;;;4992899;28;19957;-53
2023/01/02 01:49:08;;;;;;;;;;;11.10;99.90;;;;;;4989088;28;20337;-55
2023/01/02 01:51:36;;;;;;;;;;;11.20;99.90;;;;;;4986145;28;19960;-51
2023/01/02 01:54:08;;;;;;;;;;;11.20;99.90;;;;;;4994857;28;19921;-54
2023/01/02 01:56:36;;;;;;;;;;;11.20;99.90;;;;;;4994089;28;19921;-56
2023/01/02 01:59:02;;;;;;;;;;;11.20;99.90;;;;;;4994670;28;19921;-52
2023/01/02 02:01:27;;;;;;;;;;;11.20;99.90;;;;;;4994325;28;19933;-56
2023/01/02 02:03:53;;;;;;;;;;;11.20;99.90;;;;;;4994275;28;19975;-56
2023/01/02 02:06:18;;;;;;;;;;;11.30;99.90;;;;;;4977142;28;20012;-51
2023/01/02 02:08:47;;;;;;;;;;;11.20;99.90;;;;;;4994318;28;19922;-53
2023/01/02 02:11:13;;;;;;;;;;;11.20;99.90;;;;;;4976457;28;19980;-52
2023/01/02 02:13:39;;;;;;;;;;;11.20;99.90;;;;;;4976531;28;20023;-51
2023/01/02 02:16:11;;;;;;;;;;;11.20;99.90;;;;;;4972104;28;20510;-51
2023/01/02 02:18:52;;;;;;;;;;;11.30;99.90;;;;;;4990650;28;22075;-51
2023/01/02 02:21:36;;;;;;;;;;;11.20;99.90;;;;;;4989072;28;19922;-55
2023/01/02 02:24:05;;;;;;;;;;;11.30;99.90;;;;;;4993913;28;20304;-55
2023/01/02 02:26:39;;;;;;;;;;;11.30;99.90;;;;;;4994204;28;19929;-51
2023/01/02 02:29:37;;;;;;;;;;;11.30;99.90;;;;;;4994011;28;19928;-56
2023/01/02 02:32:21;;;;;;;;;;;11.30;99.90;;;;;;4933875;29;20439;-55
2023/01/02 02:34:55;;;;;;;;;;;11.30;99.90;;;;;;4933924;29;19930;-55
2023/01/02 02:37:31;;;;;;;;;;;11.30;99.90;;;;;;4932718;29;19934;-53
2023/01/02 02:40:06;;;;;;;;;;;11.30;99.90;;;;;;4933587;29;19922;-55
2023/01/02 02:42:59;;;;;;;;;;;11.30;99.90;;;;;;4935065;29;19978;-52
2023/01/02 02:45:43;;;;;;;;;;;11.40;99.90;;;;;;4932577;29;20377;-52
2023/01/02 02:48:11;;;;;;;;;;;11.40;99.90;;;;;;4932305;29;20005;-53
2023/01/02 02:50:40;;;;;;;;;;;11.40;99.90;;;;;;4933553;29;19930;-51
2023/01/02 02:53:16;;;;;;;;;;;11.40;99.90;;;;;;4933433;29;19931;-53
2023/01/02 02:55:43;;;;;;;;;;;11.40;99.90;;;;;;4933359;29;19991;-51
2023/01/02 02:58:10;;;;;;;;;;;11.40;99.90;;;;;;4932398;29;19922;-52
2023/01/02 03:00:36;;;;;;;;;;;11.40;99.90;;;;;;4933178;29;20382;-54
2023/01/02 03:03:12;;;;;;;;;;;11.40;99.90;;;;;;4933260;29;19923;-54
2023/01/02 03:05:39;;;;;;;;;;;11.40;99.90;;;;;;4933529;29;19966;-53
2023/01/02 03:08:14;;;;;;;;;;;11.40;99.90;;;;;;4961248;28;19934;-55
2023/01/02 03:10:45;;;;;;;;;;;11.40;99.90;;;;;;4974137;28;19949;-54
2023/01/02 03:13:11;;;;;;;;;;;11.40;99.90;;;;;;4991978;28;19929;-52
2023/01/02 03:15:49;;;;;;;;;;;11.40;99.90;;;;;;4975272;28;19922;-54
2023/01/02 03:18:14;;;;;;;;;;;11.40;99.90;;;;;;4993081;28;19933;-54
2023/01/02 03:20:42;;;;;;;;;;;11.40;99.90;;;;;;4975092;28;19922;-55
2023/01/02 03:23:11;;;;;;;;;;;11.40;99.90;;;;;;4986761;28;20301;-53
2023/01/02 03:25:36;;;;;;;;;;;11.40;99.90;;;;;;4988958;28;20265;-55
2023/01/02 03:28:03;;;;;;;;;;;11.50;99.90;;;;;;4988922;28;19929;-56
2023/01/02 03:30:30;;;;;;;;;;;11.50;99.90;;;;;;4986855;28;19928;-52
2023/01/02 03:32:58;;;;;;;;;;;11.40;99.90;;;;;;4988240;28;20013;-53
2023/01/02 03:35:26;;;;;;;;;;;11.50;99.90;;;;;;4989107;28;19921;-55
2023/01/02 03:37:53;;;;;;;;;;;11.50;99.90;;;;;;4989170;28;19921;-56
2023/01/02 03:40:22;;;;;;;;;;;11.50;99.90;;;;;;4988804;28;19930;-56
2023/01/02 03:42:58;;;;;;;;;;;11.50;99.90;;;;;;4987752;28;19928;-56
2023/01/02 03:45:29;;;;;;;;;;;11.50;99.90;;;;;;4988118;28;19930;-56
2023/01/02 03:48:07;;;;;;;;;;;11.50;99.90;;;;;;4989013;28;19922;-53
2023/01/02 03:50:34;;;;;;;;;;;11.50;99.90;;;;;;4988891;28;19948;-55
2023/01/02 03:53:00;;;;;;;;;;;11.50;99.90;;;;;;4988641;28;20303;-54
2023/01/02 03:55:26;;;;;;;;;;;11.50;99.90;;;;;;4967899;28;19932;-53
2023/01/02 03:58:08;;;;;;;;;;;11.50;99.90;;;;;;4990066;28;20016;-52
2023/01/02 04:00:36;;;;;;;;;;;11.50;99.90;;;;;;4992500;28;19921;-55
2023/01/02 04:03:03;;;;;;;;;;;11.50;99.90;;;;;;4992678;28;19932;-53
2023/01/02 04:05:29;;;;;;;;;;;11.50;99.90;;;;;;4992350;28;19961;-56
2023/01/02 04:08:09;;;;;;;;;;;11.50;99.90;;;;;;4992589;28;20011;-51
2023/01/02 04:10:36;;;;;;;;;;;11.60;99.90;;;;;;4992456;28;20323;-52
2023/01/02 04:13:03;;;;;;;;;;;11.60;99.90;;;;;;4973355;28;20316;-51
2023/01/02 04:15:32;;;;;;;;;;;11.60;99.90;;;;;;4992414;28;19921;-51
2023/01/02 04:18:04;;;;;;;;;;;11.60;99.90;;;;;;4992039;28;20259;-52
2023/01/02 04:20:34;;;;;;;;;;;11.60;99.90;;;;;;4975292;28;19953;-54
2023/01/02 04:23:01;;;;;;;;;;;11.60;99.90;;;;;;4989315;28;19929;-52
2023/01/02 04:25:40;;;;;;;;;;;11.60;99.90;;;;;;4957247;28;20009;-54
2023/01/02 04:28:11;;;;;;;;;;;11.60;99.90;;;;;;4989740;28;20214;-55
2023/01/02 04:30:39;;;;;;;;;;;11.60;99.90;;;;;;4992758;28;20027;-55
2023/01/02 04:33:07;;;;;;;;;;;11.70;99.90;;;;;;4992224;28;19922;-55
2023/01/02 04:35:33;;;;;;;;;;;11.70;99.90;;;;;;4991924;28;20466;-56
2023/01/02 04:38:05;;;;;;;;;;;11.70;99.90;;;;;;4988831;28;20082;-54
2023/01/02 04:40:31;;;;;;;;;;;11.70;99.90;;;;;;4991765;28;20099;-54
2023/01/02 04:42:56;;;;;;;;;;;11.70;99.90;;;;;;4988356;28;20491;-56
2023/01/02 04:45:22;;;;;;;;;;;11.70;99.90;;;;;;4992014;28;19921;-56
2023/01/02 04:47:47;;;;;;;;;;;11.70;99.90;;;;;;4991438;28;19922;-55
2023/01/02 04:50:13;;;;;;;;;;;11.80;99.90;;;;;;4989904;28;19965;-56
2023/01/02 04:52:39;;;;;;;;;;;11.80;99.90;;;;;;4989653;28;19934;-56
2023/01/02 04:55:07;;;;;;;;;;;11.80;99.90;;;;;;4991005;28;19922;-53
2023/01/02 04:57:32;;;;;;;;;;;11.80;99.90;;;;;;4990188;28;19948;-55
2023/01/02 04:59:58;;;;;;;;;;;11.80;99.90;;;;;;4987691;28;20357;-55
2023/01/02 05:02:23;;;;;;;;;;;11.80;99.90;;;;;;4990759;28;19922;-53
2023/01/02 05:04:49;;;;;;;;;;;11.80;99.90;;;;;;4994385;28;19921;-55
2023/01/02 05:07:14;;;;;;;;;;;11.80;99.90;;;;;;4994260;28;20402;-56
2023/01/02 05:09:40;;;;;;;;;;;11.80;99.90;;;;;;4977523;28;19947;-52
2023/01/02 05:12:05;;;;;;;;;;;11.80;99.90;;;;;;4995180;28;20368;-54
2023/01/02 05:14:31;;;;;;;;;;;11.80;99.90;;;;;;4995186;28;20372;-55
2023/01/02 05:16:56;;;;;;;;;;;11.80;99.90;;;;;;4995036;28;19921;-52
2023/01/02 05:19:22;;;;;;;;;;;11.80;99.90;;;;;;4994734;28;19925;-56
2023/01/02 05:24:31;;;;;;;;;;;11.80;99.90;;;;;;4995139;28;19925;-54
2023/01/02 05:26:57;;;;;;;;;;;11.80;99.90;;;;;;4994863;28;19928;-53
2023/01/02 05:29:22;;;;;;;;;;;11.80;99.90;;;;;;4994908;28;19944;-55
2023/01/02 05:31:48;;;;;;;;;;;11.80;99.90;;;;;;4994643;28;19949;-53
2023/01/02 05:34:14;;;;;;;;;;;11.80;99.90;;;;;;4994611;28;19929;-55
2023/01/02 05:36:40;;;;;;;;;;;11.80;99.90;;;;;;4986862;28;20303;-54
2023/01/02 05:39:10;;;;;;;;;;;11.80;99.90;;;;;;4994933;28;19926;-53
2023/01/02 05:41:38;;;;;;;;;;;11.80;99.90;;;;;;4995082;28;19926;-54
2023/01/02 05:44:04;;;;;;;;;;;11.80;99.90;;;;;;4994604;28;20307;-55
2023/01/02 05:46:29;;;;;;;;;;;11.80;99.90;;;;;;4994166;28;20224;-55
2023/01/02 05:48:55;;;;;;;;;;;11.80;99.90;;;;;;4981157;28;19926;-53
2023/01/02 05:51:20;;;;;;;;;;;11.80;99.90;;;;;;4994443;28;19928;-52
2023/01/02 05:53:46;;;;;;;;;;;11.80;99.90;;;;;;4994011;28;19921;-52
2023/01/02 05:56:13;;;;;;;;;;;11.80;99.90;;;;;;4990746;28;19922;-54
2023/01/02 05:58:40;;;;;;;;;;;11.90;99.90;;;;;;4957084;28;19926;-55
2023/01/02 06:01:09;;;;;;;;;;;11.90;99.90;;;;;;4989991;28;20000;-53
2023/01/02 06:03:35;;;;;;;;;;;11.90;99.90;;;;;;4992785;28;20009;-51
2023/01/02 06:06:02;;;;;;;;;;;11.80;99.90;;;;;;4976976;28;19961;-55
2023/01/02 06:08:27;;;;;;;;;;;11.90;99.90;;;;;;4993596;28;20300;-52
2023/01/02 06:10:53;;;;;;;;;;;11.80;99.90;;;;;;4993416;28;20008;-52
2023/01/02 06:13:18;;;;;;;;;;;11.80;99.90;;;;;;4994107;28;20013;-55
2023/01/02 06:15:44;;;;;;;;;;;11.80;99.90;;;;;;4993644;28;19940;-56
2023/01/02 06:18:09;;;;;;;;;;;11.90;99.90;;;;;;4993938;28;20348;-55
2023/01/02 06:20:34;;;;;;;;;;;11.90;99.90;;;;;;4993473;28;19970;-53
2023/01/02 06:23:00;;;;;;;;;;;11.90;99.90;;;;;;4993141;28;19922;-53
2023/01/02 06:25:25;;;;;;;;;;;11.90;99.90;;;;;;4993525;28;19925;-53
2023/01/02 06:27:51;;;;;;;;;;;11.90;99.90;;;;;;4975815;28;19921;-53
2023/01/02 06:30:16;;;;;;;;;;;11.90;99.90;;;;;;4993399;28;20325;-55
2023/01/02 06:32:42;;;;;;;;;;;11.90;99.90;;;;;;4993654;28;19922;-56
2023/01/02 06:35:08;;;;;;;;;;;11.90;99.90;;;;;;4993588;28;19922;-56
2023/01/02 06:37:33;;;;;;;;;;;11.90;99.90;;;;;;4993492;28;19929;-54
2023/01/02 06:39:59;;;;;;;;;;;11.80;99.90;;;;;;4993646;28;19929;-54
2023/01/02 06:42:24;;;;;;;;;;;11.90;99.90;;;;;;5005506;28;19992;-53
2023/01/02 06:44:50;;;;;;;;;;;11.90;99.90;;;;;;4975656;28;19928;-56
2023/01/02 06:47:15;;;;;;;;;;;11.90;99.90;;;;;;4988626;28;20405;-52
2023/01/02 06:49:41;;;;;;;;;;;11.90;99.90;;;;;;4993436;28;19928;-53
2023/01/02 06:52:06;;;;;;;;;;;11.90;99.90;;;;;;4993151;28;20354;-56
2023/01/02 06:54:32;;;;;;;;;;;11.90;99.90;;;;;;4993466;28;19921;-53
2023/01/02 06:56:57;;;;;;;;;;;11.90;99.90;;;;;;4992870;28;19976;-54
2023/01/02 06:59:23;;;;;;;;;;;11.80;99.90;;;;;;4987452;28;20292;-56
2023/01/02 07:01:48;;;;;;;;;;;11.80;99.90;;;;;;4991659;28;20021;-52
2023/01/02 07:04:15;;;;;;;;;;;11.90;99.90;;;;;;4992333;28;19928;-53
2023/01/02 07:06:40;;;;;;;;;;;11.90;99.90;;;;;;4990977;28;19922;-55
2023/01/02 07:09:06;;;;;;;;;;;11.80;99.90;;;;;;4990655;28;19925;-54
2023/01/02 07:11:31;;;;;;;;;;;11.80;99.90;;;;;;4985764;28;20067;-55
2023/01/02 07:13:57;;;;;;;;;;;11.90;99.90;;;;;;4987081;28;19922;-54
2023/01/02 07:16:23;;;;;;;;;;;11.90;99.90;;;;;;4986239;28;19922;-56
2023/01/02 07:18:50;;;;;;;;;;;11.90;99.90;;;;;;4989436;28;19929;-53
2023/01/02 07:21:17;;;;;;;;;;;11.90;99.90;;;;;;4992451;28;19925;-52
2023/01/02 07:23:42;;;;;;;;;;;11.90;99.90;;;;;;4992510;28;19991;-53
2023/01/02 07:26:09;;;;;;;;;;;11.90;99.90;;;;;;4992422;28;20368;-57
2023/01/02 07:28:35;;;;;;;;;;;11.90;99.90;;;;;;4992457;28;19922;-56
2023/01/02 07:31:02;;;;;;;;;;;11.80;99.90;;;;;;4992572;28;20291;-54
2023/01/02 07:33:28;;;;;;;;;;;11.70;99.90;;;;;;4994783;28;19925;-53
2023/01/02 07:35:57;;;;;;;;;;;11.40;99.90;;;;;;4978305;28;20005;-52
2023/01/02 07:38:23;;;;;;;;;;;11.20;99.90;;;;;;4996427;28;19969;-53
2023/01/02 07:40:48;;;;;;;;;;;11.10;99.90;;;;;;4996276;28;19930;-51
2023/01/02 07:43:14;;;;;;;;;;;10.90;99.90;;;;;;4996066;28;20317;-54
2023/01/02 07:45:39;;;;;;;;;;;10.90;99.90;;;;;;4996059;28;19928;-53
2023/01/02 07:48:05;;;;;;;;;;;10.80;99.90;;;;;;4982584;28;19925;-52
2023/01/02 07:50:31;;;;;;;;;;;;;;;;;;4996070;28;19929;-52
2023/01/02 07:52:57;;;;;;;;;;;;;;;;;;4978349;28;20012;-52
2023/01/02 07:55:23;;;;;;;;;;;;;;;;;;4996447;28;19928;-51
2023/01/02 07:57:49;;;;;;;;;;;;;;;;;;4996005;28;19929;-52
2023/01/02 08:00:15;;;;;;;;;;;;;;;;;;4996143;28;19928;-53
2023/01/02 08:02:41;;;;;;;;;;;;;;;;;;4995856;28;19922;-55
2023/01/02 08:05:07;;;;;;;;;;;;;;;;;;4995966;28;19975;-55
2023/01/02 08:07:33;;;;;;;;;;;;;;;;;;4988282;28;20316;-56
2023/01/02 08:09:58;;;;;;;;;;;10.10;99.90;;;;;;4990270;28;19925;-55
2023/01/02 08:12:24;;;;;;;;;;;10.10;99.90;;;;;;4989454;28;19926;-54
2023/01/02 08:14:49;;;;;;;;;;;10.10;99.90;;;;;;4994110;28;19921;-52
2023/01/02 08:17:15;;;;;;;;;;;10.10;99.90;;;;;;4994535;28;19921;-56
2023/01/02 08:19:40;;;;;;;;;;;10.00;99.90;;;;;;4992981;28;20403;-56
2023/01/02 08:22:06;;;;;;;;;;;10.00;99.90;;;;;;4990566;28;19932;-57
2023/01/02 08:24:31;;;;;;;;;;;9.90;99.90;;;;;;4986923;28;19921;-55
2023/01/02 08:26:57;;;;;;;;;;;9.90;99.90;;;;;;4991075;28;20427;-56
2023/01/02 08:29:22;;;;;;;;;;;9.90;99.90;;;;;;4995615;28;19976;-54
2023/01/02 08:31:48;;;;;;;;;;;9.80;99.90;;;;;;4995698;28;19938;-53
2023/01/02 08:34:14;;;;;;;;;;;9.80;99.90;;;;;;4995972;28;19925;-54
2023/01/02 08:36:40;;;;;;;;;;;9.80;99.90;;;;;;4961973;28;20051;-53
2023/01/02 08:39:05;;;;;;;;;;;9.80;99.90;;;;;;4995392;28;19925;-54
2023/01/02 08:41:35;;;;;;;;;;;9.70;99.90;;;;;;4995202;28;20429;-56
2023/01/02 08:44:00;;;;;;;;;;;9.70;99.90;;;;;;4994513;28;19921;-56
2023/01/02 08:46:26;;;;;;;;;;;9.60;99.90;;;;;;4995198;28;19925;-55
2023/01/02 08:48:52;;;;;;;;;;;9.50;99.90;;;;;;4995471;28;20076;-55
2023/01/02 08:51:18;;;;;;;;;;;9.50;99.90;;;;;;4995520;28;20051;-56
2023/01/02 08:53:43;;;;;;;;;;;9.50;99.90;;;;;;4995295;28;20266;-56
2023/01/02 08:56:22;;;;;;;;;;;9.40;99.90;;;;;;4994253;28;20483;-54
2023/01/02 08:58:48;;;;;;;;;;;9.40;99.90;;;;;;4995342;28;20012;-56
2023/01/02 09:01:14;;;;;;;;;;;9.40;99.90;;;;;;4994927;28;20017;-54
2023/01/02 09:03:39;;;;;;;;;;;9.40;99.90;;;;;;4995181;28;20012;-55
2023/01/02 09:06:05;;;;;;;;;;;9.40;99.90;;;;;;4994814;28;20016;-54
2023/01/02 09:08:30;;;;;;;;;;;9.30;99.90;;;;;;4988830;28;19921;-53
2023/01/02 09:10:56;;;;;;;;;;;9.30;99.90;;;;;;4989158;28;20021;-55
2023/01/02 09:13:21;;;;;;;;;;;9.30;99.90;;;;;;4990487;28;19933;-55
2023/01/02 09:15:47;;;;;;;;;;;9.20;99.90;;;;;;4986879;28;19922;-56
2023/01/02 09:18:12;;;;;;;;;;;9.10;99.90;;;;;;4987692;28;19930;-54
2023/01/02 09:20:38;;;;;;;;;;;9.10;99.90;;;;;;4988004;28;19921;-55
2023/01/02 09:23:04;;;;;;;;;;;9.10;99.90;;;;;;4987297;28;19965;-53
2023/01/02 09:25:29;;;;;;;;;;;9.10;99.90;;;;;;4985735;28;19930;-54
2023/01/02 09:27:55;;;;;;;;;;;9.10;99.90;;;;;;4987342;28;19992;-55
2023/01/02 09:30:20;;;;;;;;;;;9.00;99.90;;;;;;4986800;28;19922;-55
2023/01/02 09:32:47;;;;;;;;;;;9.10;99.90;;;;;;4992043;28;19979;-53
2023/01/02 09:35:13;;;;;;;;;;;9.00;99.90;;;;;;4989586;28;20277;-54
2023/01/02 09:37:39;;;;;;;;;;;9.00;99.90;;;;;;4991058;28;19937;-54
2023/01/02 09:40:05;;;;;;;;;;;9.00;99.90;;;;;;4985416;28;19976;-57
2023/01/02 09:42:31;;;;;;;;;;;9.00;99.90;;;;;;4989796;28;19953;-52
2023/01/02 09:44:59;;;;;;;;;;;9.00;99.90;;;;;;4991967;28;19957;-54
2023/01/02 09:47:25;;;;;;;;;;;9.00;99.90;;;;;;4991084;28;19922;-52
2023/01/02 09:49:50;;;;;;;;;;;9.00;99.90;;;;;;4991536;28;20008;-55
2023/01/02 09:52:19;;;;;;;;;;;9.00;99.90;;;;;;4996298;28;20012;-54
2023/01/02 09:54:45;;;;;;;;;;;9.00;99.90;;;;;;4976749;28;19926;-55
2023/01/02 09:57:24;;;;;;;;;;;9.00;99.90;;;;;;4985398;28;19930;-55
2023/01/02 09:59:53;;;;;;;;;;;9.00;99.90;;;;;;4989783;28;19922;-56
2023/01/02 10:02:32;;;;;;;;;;;9.10;99.90;;;;;;4976644;28;19922;-55
2023/01/02 10:05:04;;;;;;;;;;;9.00;99.90;;;;;;4993624;28;19956;-55
2023/01/02 10:07:48;;;;;;;;;;;9.10;99.90;;;;;;4991840;28;20241;-57
2023/01/02 10:10:25;;;;;;;;;;;9.10;99.90;;;;;;4986705;28;20291;-51
2023/01/02 10:13:05;;;;;;;;;;;9.10;99.90;;;;;;4986983;28;19980;-56
2023/01/02 10:15:31;;;;;;;;;;;9.10;99.90;;;;;;4987899;28;19929;-55
2023/01/02 10:18:04;;;;;;;;;;;9.20;99.90;;;;;;4985972;28;19929;-55
2023/01/02 10:20:34;;;;;;;;;;;9.20;99.90;;;;;;4985573;28;20067;-55
2023/01/02 10:23:01;;;;;;;;;;;9.20;99.90;;;;;;4986365;28;19926;-56
2023/01/02 10:25:36;;;;;;;;;;;9.30;99.90;;;;;;4984376;28;19926;-55
2023/01/02 10:28:20;;;;;;;;;;;9.30;99.90;;;;;;4985772;28;20009;-52
2023/01/02 10:30:48;;;;;;;;;;;9.40;99.90;;;;;;4971482;28;20016;-53
2023/01/02 10:33:17;;;;;;;;;;;9.30;99.90;;;;;;4982740;28;19921;-52
2023/01/02 10:35:44;;;;;;;;;;;9.40;99.90;;;;;;4989335;28;20043;-54
2023/01/02 10:38:11;;;;;;;;;;;9.40;99.90;;;;;;4993507;28;19922;-55
2023/01/02 10:40:39;;;;;;;;;;;9.40;99.90;;;;;;4989845;28;20020;-51
2023/01/02 10:43:05;;;;;;;;;;;9.40;99.90;;;;;;4986540;28;20296;-55
2023/01/02 10:45:32;;;;;;;;;;;9.40;99.90;;;;;;4984979;28;19925;-54
2023/01/02 10:47:57;;;;;;;;;;;9.40;99.90;;;;;;4979106;28;20638;-54
2023/01/02 10:50:25;;;;;;;;;;;9.30;99.90;;;;;;4986643;28;20371;-54
2023/01/02 10:52:52;;;;;;;;;;;9.30;99.90;;;;;;4984875;28;19922;-53
2023/01/02 10:55:28;;;;;;;;;;;9.30;99.90;;;;;;4985810;28;19969;-56
2023/01/02 10:58:00;;;;;;;;;;;9.30;99.90;;;;;;4984479;28;19922;-53
2023/01/02 11:00:27;;;;;;;;;;;9.30;99.90;;;;;;4986955;28;19921;-56
2023/01/02 11:02:54;;;;;;;;;;;9.20;99.90;;;;;;4986505;28;20367;-52
2023/01/02 11:05:21;;;;;;;;;;;9.30;99.90;;;;;;4968871;28;19972;-54
2023/01/02 11:07:47;;;;;;;;;;;9.30;99.90;;;;;;4984325;28;20313;-55
2023/01/02 11:10:22;;;;;;;;;;;9.30;99.90;;;;;;5000989;28;19925;-55
2023/01/02 11:12:48;;;;;;;;;;;9.40;99.90;;;;;;4986264;28;19929;-56
2023/01/02 11:15:21;;;;;;;;;;;9.50;99.90;;;;;;4983010;28;19953;-56
2023/01/02 11:17:46;;;;;;;;;;;9.50;99.90;;;;;;4995858;28;19930;-54
2023/01/02 11:20:29;;;;;;;;;;;9.50;99.90;;;;;;4982887;28;19930;-54
2023/01/02 11:22:56;;;;;;;;;;;9.50;99.90;;;;;;4967239;28;19929;-54
2023/01/02 11:25:26;;;;;;;;;;;9.50;99.90;;;;;;4988500;28;19926;-55
2023/01/02 11:27:56;;;;;;;;;;;9.50;99.90;;;;;;4969808;28;20017;-52
2023/01/02 11:30:31;;;;;;;;;;;9.60;99.90;;;;;;4990689;28;19926;-50
2023/01/02 11:33:12;;;;;;;;;;;9.60;99.90;;;;;;4987584;28;19926;-52
2023/01/02 11:35:41;;;;;;;;;;;9.60;99.90;;;;;;4981426;28;20308;-52
2023/01/02 11:38:36;;;;;;;;;;;9.70;99.90;;;;;;4961210;28;20008;-55
2023/01/02 11:41:01;;;;;;;;;;;9.60;99.90;;;;;;4945392;28;19922;-55
2023/01/02 11:43:50;;;;;;;;;;;9.60;99.90;;;;;;4946809;28;19950;-50
2023/01/02 11:46:19;;;;;;;;;;;9.60;99.90;;;;;;4944477;28;20080;-54
2023/01/02 11:48:44;;;;;;;;;;;9.70;99.90;;;;;;4944540;29;19930;-54
2023/01/02 11:51:14;;;;;;;;;;;9.70;99.90;;;;;;4944608;29;20385;-52
2023/01/02 11:53:44;;;;;;;;;;;9.70;99.90;;;;;;4945637;29;19922;-53
2023/01/02 11:56:33;;;;;;;;;;;9.70;99.90;;;;;;4926556;29;19922;-52
2023/01/02 11:58:59;;;;;;;;;;;9.70;99.90;;;;;;4941722;29;20407;-55
2023/01/02 12:01:27;;;;;;;;;;;9.70;99.90;;;;;;4941375;29;19926;-55
2023/01/02 12:03:52;;;;;;;;;;;9.60;99.90;;;;;;4927612;29;19923;-52
2023/01/02 12:06:18;;;;;;;;;;;9.70;99.90;;;;;;4943984;29;19929;-50
2023/01/02 12:08:49;;;;;;;;;;;9.70;99.90;;;;;;4912404;29;19922;-50
2023/01/02 12:11:24;;;;;;;;;;;9.70;99.90;;;;;;4944686;29;20304;-54
2023/01/02 12:13:54;;;;;;;;;;;9.80;99.90;;;;;;4944641;29;19930;-51
2023/01/02 12:16:33;;;;;;;;;;;9.80;99.90;;;;;;4944777;28;19939;-52
2023/01/02 12:19:07;;;;;;;;;;;9.70;99.90;;;;;;4948658;28;19922;-53
2023/01/02 12:21:33;;;;;;;;;;;9.70;99.90;;;;;;4950935;28;19950;-53
2023/01/02 12:24:05;;;;;;;;;;;9.60;99.90;;;;;;4952625;28;19930;-54
2023/01/02 12:26:30;;;;;;;;;;;9.60;99.90;;;;;;4951926;28;19922;-56
2023/01/02 12:28:58;;;;;;;;;;;9.60;99.90;;;;;;4952409;28;19929;-55
2023/01/02 12:31:27;;;;;;;;;;;9.70;99.90;;;;;;4954135;28;19993;-53
2023/01/02 12:34:11;;;;;;;;;;;9.80;99.90;;;;;;4951718;28;19973;-54
2023/01/02 12:36:39;;;;;;;;;;;9.80;99.90;;;;;;4956708;28;20448;-55
2023/01/02 12:39:05;;;;;;;;;;;9.90;99.90;;;;;;4949022;28;19929;-55
2023/01/02 12:41:30;;;;;;;;;;;9.80;99.90;;;;;;4948594;28;19922;-55
2023/01/02 12:44:11;;;;;;;;;;;9.90;99.90;;;;;;4950352;28;19930;-55
2023/01/02 12:46:52;;;;;;;;;;;9.90;99.90;;;;;;4964369;28;20284;-54
2023/01/02 12:49:24;;;;;;;;;;;9.90;99.90;;;;;;4968055;28;19932;-54
2023/01/02 12:51:50;;;;;;;;;;;9.80;99.90;;;;;;4986192;28;19933;-54
2023/01/02 12:54:21;;;;;;;;;;;9.80;99.90;;;;;;4989501;28;19922;-54
2023/01/02 12:57:07;;;;;;;;;;;9.80;99.90;;;;;;4988245;28;19940;-54
2023/01/02 12:59:35;;;;;;;;;;;9.70;99.90;;;;;;4985446;28;19944;-55
2023/01/02 13:02:10;;;;;;;;;;;9.70;99.90;;;;;;4987009;28;20269;-51
2023/01/02 13:04:45;;;;;;;;;;;9.70;99.90;;;;;;4990063;28;19972;-52
2023/01/02 13:07:18;;;;;;;;;;;9.70;99.90;;;;;;4991645;28;19929;-54
2023/01/02 13:09:44;;;;;;;;;;;9.60;99.90;;;;;;4995024;28;19933;-52
2023/01/02 13:12:10;;;;;;;;;;;9.60;99.90;;;;;;4991736;28;19922;-51
2023/01/02 13:14:54;;;;;;;;;;;9.60;99.90;;;;;;4985899;28;19933;-54
2023/01/02 13:17:19;;;;;;;;;;;9.60;99.90;;;;;;4987430;28;20067;-52
2023/01/02 13:19:53;;;;;;;;;;;9.60;99.90;;;;;;4989313;28;19926;-54
2023/01/02 13:22:28;;;;;;;;;;;9.50;99.90;;;;;;4952429;28;19921;-53
2023/01/02 13:24:55;;;;;;;;;;;9.60;99.90;;;;;;4987338;28;20264;-53
2023/01/02 13:27:21;;;;;;;;;;;9.50;99.90;;;;;;4988051;28;19928;-52
2023/01/02 13:29:47;;;;;;;;;;;9.50;99.90;;;;;;4987956;28;19984;-54
2023/01/02 13:32:13;;;;;;;;;;;9.50;99.90;;;;;;4985052;28;19934;-53
2023/01/02 13:34:58;;;;;;;;;;;9.50;99.90;;;;;;4988082;28;19921;-54
2023/01/02 13:37:25;;;;;;;;;;;9.50;99.90;;;;;;4988895;28;19929;-53
2023/01/02 13:39:55;;;;;;;;;;;9.50;99.90;;;;;;4987541;28;20260;-54
2023/01/02 13:45:12;;;;;;;;;;;9.50;99.90;;;;;;4975844;28;19922;-51
2023/01/02 13:47:43;;;;;;;;;;;9.50;99.90;;;;;;4991686;28;20398;-50
2023/01/02 13:50:24;;;;;;;;;;;9.50;99.90;;;;;;4993250;28;19918;-52
2023/01/02 13:52:57;;;;;;;;;;;9.50;99.90;;;;;;4990827;28;19925;-55
2023/01/02 13:55:30;;;;;;;;;;;9.50;99.90;;;;;;4971407;28;20406;-50
2023/01/02 13:58:16;;;;;;;;;;;9.50;99.90;;;;;;4985443;28;19947;-52
2023/01/02 14:00:44;;;;;;;;;;;9.50;99.90;;;;;;4988083;28;20096;-51
2023/01/02 14:03:19;;;;;;;;;;;9.50;99.90;;;;;;4988601;28;19922;-54
2023/01/02 14:06:00;;;;;;;;;;;9.40;99.90;;;;;;4984814;28;19930;-53
2023/01/02 14:08:29;;;;;;;;;;;9.40;99.90;;;;;;4986756;28;19922;-51
2023/01/02 14:10:57;;;;;;;;;;;9.50;99.90;;;;;;4986531;28;20011;-52
2023/01/02 14:13:26;;;;;;;;;;;9.40;99.90;;;;;;4987537;28;20298;-49
2023/01/02 14:16:04;;;;;;;;;;;9.40;99.90;;;;;;4967047;28;20877;-50
2023/01/02 14:18:30;;;;;;;;;;;9.50;99.90;;;;;;4985520;28;20331;-53
2023/01/02 14:20:55;;;;;;;;;;;9.50;99.90;;;;;;4968912;28;19930;-51
2023/01/02 14:23:26;;;;;;;;;;;9.50;99.90;;;;;;4984005;28;19973;-51
2023/01/02 14:25:52;;;;;;;;;;;9.50;99.90;;;;;;4980515;28;19922;-52
2023/01/02 14:28:32;;;;;;;;;;;9.40;99.90;;;;;;4986141;28;19976;-52
2023/01/02 14:30:58;;;;;;;;;;;9.40;99.90;;;;;;4975370;28;19945;-50
2023/01/02 14:33:29;;;;;;;;;;;9.40;99.90;;;;;;4984797;28;19933;-51
2023/01/02 14:35:58;;;;;;;;;;;9.40;99.90;;;;;;4983823;28;19937;-54
2023/01/02 14:38:27;;;;;;;;;;;9.40;99.90;;;;;;4983857;28;19939;-55
2023/01/02 14:43:28;;;;;;;;;;;9.40;99.90;;;;;;4985432;28;19945;-50